createdAt,value
2022-09-05T00:00:23.601Z,101064.94
2022-09-05T00:02:56.310Z,101063.34
2022-09-05T00:05:33.693Z,101065.94
2022-09-05T00:08:14.632Z,101072.34
2022-09-05T00:11:39.830Z,101069.06
2022-09-05T00:14:07.682Z,101069.94
2022-09-05T00:16:52.239Z,101067.78
2022-09-05T00:24:22.790Z,101069.50
2022-09-05T00:24:32.632Z,101074.19
2022-09-05T00:26:13.309Z,101068.50
2022-09-05T00:29:03.072Z,101067.63
2022-09-05T00:31:53.910Z,101061.09
2022-09-05T00:34:59.928Z,101061.94
2022-09-05T00:37:34.120Z,101058.38
2022-09-05T00:40:19.117Z,101065.94
2022-09-05T00:42:53.235Z,101061.09
2022-09-05T00:45:31.314Z,101057.69
2022-09-05T00:48:07.755Z,101057.81
2022-09-05T00:50:56.379Z,101060.78
2022-09-05T00:53:29.992Z,101061.91
2022-09-05T00:56:27.971Z,101062.66
2022-09-05T00:59:35.172Z,101065.06
2022-09-05T01:02:28.288Z,101059.91
2022-09-05T01:05:06.480Z,101061.56
2022-09-05T01:07:46.650Z,101070.97
2022-09-05T01:10:38.849Z,101065.81
2022-09-05T01:13:21.528Z,101067.28
2022-09-05T01:16:00.213Z,101061.88
2022-09-05T01:18:43.469Z,101057.47
2022-09-05T01:21:35.367Z,101061.16
2022-09-05T01:24:28.016Z,101055.56
2022-09-05T01:28:25.244Z,101059.41
2022-09-05T01:30:36.107Z,101055.69
2022-09-05T01:33:19.841Z,101054.41
2022-09-05T01:36:04.227Z,101057.53
2022-09-05T01:38:36.935Z,101064.06
2022-09-05T01:41:21.806Z,101059.22
2022-09-05T01:44:07.195Z,101065.44
2022-09-05T01:46:35.190Z,101064.00
2022-09-05T01:49:14.040Z,101067.78
2022-09-05T01:52:04.901Z,101065.16
2022-09-05T01:54:47.556Z,101065.56
2022-09-05T01:57:35.837Z,101068.97
2022-09-05T02:00:12.609Z,101064.44
2022-09-05T02:03:07.032Z,101063.00
2022-09-05T02:05:51.860Z,101058.19
2022-09-05T02:08:44.554Z,101068.84
2022-09-05T02:11:12.746Z,101069.28
2022-09-05T02:13:46.126Z,101065.00
2022-09-05T02:16:23.059Z,101068.69
2022-09-05T02:19:29.416Z,101073.69
2022-09-05T02:22:12.067Z,101067.41
2022-09-05T02:24:45.627Z,101066.69
2022-09-05T02:28:05.227Z,101064.13
2022-09-05T02:30:24.597Z,101064.66
2022-09-05T02:32:55.259Z,101067.91
2022-09-05T02:35:40.542Z,101067.59
2022-09-05T02:40:53.497Z,101058.75
2022-09-05T02:45:10.682Z,101062.84
2022-09-05T02:45:18.521Z,101068.50
2022-09-05T02:47:16.387Z,101073.25
2022-09-05T02:52:46.254Z,101070.47
2022-09-05T02:57:26.759Z,101076.00
2022-09-05T02:57:34.569Z,101074.00
2022-09-05T02:59:11.302Z,101074.88
2022-09-05T03:01:52.484Z,101074.16
2022-09-05T03:04:29.771Z,101079.28
2022-09-05T03:07:14.639Z,101080.28
2022-09-05T03:09:47.098Z,101084.22
2022-09-05T03:12:50.410Z,101078.06
2022-09-05T03:15:38.323Z,101077.47
2022-09-05T03:18:28.085Z,101080.06
2022-09-05T03:21:29.930Z,101082.75
2022-09-05T03:24:02.459Z,101080.41
2022-09-05T03:26:38.110Z,101082.75
2022-09-05T03:29:45.919Z,101090.97
2022-09-05T03:32:33.777Z,101093.91
2022-09-05T03:35:32.383Z,101085.22
2022-09-05T03:38:20.619Z,101088.19
2022-09-05T03:41:02.766Z,101091.59
2022-09-05T03:44:06.819Z,101099.94
2022-09-05T03:47:12.813Z,101105.84
2022-09-05T03:54:51.144Z,101103.31
2022-09-05T03:57:14.440Z,101108.47
2022-09-05T03:57:14.577Z,101104.91
2022-09-05T03:59:28.817Z,101110.56
2022-09-05T04:04:54.896Z,101105.44
2022-09-05T04:08:18.262Z,101112.06
2022-09-05T04:08:34.021Z,101111.06
2022-09-05T04:11:02.048Z,101121.38
2022-09-05T04:13:51.414Z,101120.88
2022-09-05T04:16:24.110Z,101124.69
2022-09-05T04:18:56.521Z,101133.88
2022-09-05T04:21:35.009Z,101135.63
2022-09-05T04:24:39.564Z,101140.25
2022-09-05T04:27:27.754Z,101146.03
2022-09-05T04:29:58.530Z,101148.13
2022-09-05T04:32:38.047Z,101148.00
2022-09-05T04:35:19.878Z,101143.06
2022-09-05T04:38:13.270Z,101143.94
2022-09-05T04:40:48.734Z,101147.72
2022-09-05T04:43:18.084Z,101159.19
2022-09-05T04:46:15.717Z,101147.91
2022-09-05T04:48:59.713Z,101153.66
2022-09-05T04:52:00.875Z,101157.69
2022-09-05T04:54:45.700Z,101155.25
2022-09-05T04:57:27.911Z,101165.78
2022-09-05T05:05:34.410Z,101163.66
2022-09-05T05:06:09.585Z,101154.22
2022-09-05T05:06:14.078Z,101165.41
2022-09-05T05:08:42.728Z,101165.38
2022-09-05T05:17:59.309Z,101162.16
2022-09-05T05:18:10.551Z,101168.81
2022-09-05T05:18:14.227Z,101165.03
2022-09-05T05:20:42.454Z,101166.16
2022-09-05T05:23:15.322Z,101171.50
2022-09-05T05:25:55.043Z,101169.16
2022-09-05T05:28:43.367Z,101171.03
2022-09-05T05:31:16.873Z,101171.97
2022-09-05T05:33:49.025Z,101172.28
2022-09-05T05:36:38.968Z,101169.63
2022-09-05T05:39:14.219Z,101166.25
2022-09-05T05:41:49.817Z,101172.56
2022-09-05T05:44:19.234Z,101168.16
2022-09-05T05:46:53.925Z,101180.06
2022-09-05T05:49:29.047Z,101183.66
2022-09-05T05:52:14.105Z,101180.84
2022-09-05T05:55:45.223Z,101176.03
2022-09-05T05:58:00.390Z,101173.94
2022-09-05T06:00:57.816Z,101174.25
2022-09-05T06:03:46.124Z,101172.66
2022-09-05T06:06:17.307Z,101175.66
2022-09-05T06:11:30.692Z,101176.63
2022-09-05T06:14:55.119Z,101174.78
2022-09-05T06:15:26.649Z,101177.75
2022-09-05T06:17:53.830Z,101177.25
2022-09-05T06:22:10.652Z,101173.06
2022-09-05T06:24:16.837Z,101171.81
2022-09-05T06:27:12.959Z,101167.13
2022-09-05T06:30:08.926Z,101177.75
2022-09-05T06:33:09.773Z,101175.91
2022-09-05T06:35:39.234Z,101179.41
2022-09-05T06:38:14.184Z,101173.72
2022-09-05T06:41:01.508Z,101176.75
2022-09-05T06:44:01.751Z,101176.25
2022-09-05T06:46:55.119Z,101171.91
2022-09-05T06:49:51.623Z,101177.34
2022-09-05T06:52:55.745Z,101180.66
2022-09-05T06:55:40.270Z,101184.63
2022-09-05T06:58:27.898Z,101182.47
2022-09-05T07:01:02.407Z,101174.88
2022-09-05T07:04:33.346Z,101170.66
2022-09-05T07:07:23.093Z,101169.16
2022-09-05T07:10:37.864Z,101176.19
2022-09-05T07:13:28.027Z,101178.97
2022-09-05T07:16:16.403Z,101170.63
2022-09-05T07:19:12.264Z,101176.41
2022-09-05T07:21:55.249Z,101180.19
2022-09-05T07:24:41.802Z,101180.53
2022-09-05T07:27:41.886Z,101180.69
2022-09-05T07:30:22.917Z,101184.59
2022-09-05T07:32:53.051Z,101183.75
2022-09-05T07:35:29.315Z,101177.91
2022-09-05T07:38:22.662Z,101182.31
2022-09-05T07:41:18.382Z,101183.09
2022-09-05T07:43:48.860Z,101183.09
2022-09-05T07:46:26.383Z,101179.81
2022-09-05T07:49:07.758Z,101186.88
2022-09-05T07:55:10.986Z,101177.41
2022-09-05T07:57:01.150Z,101180.59
2022-09-05T07:57:31.674Z,101185.72
2022-09-05T08:00:25.651Z,101175.28
2022-09-05T08:02:55.095Z,101178.19
2022-09-05T08:05:34.247Z,101167.75
2022-09-05T08:08:08.339Z,101170.91
2022-09-05T08:11:22.511Z,101178.31
2022-09-05T08:13:46.455Z,101174.09
2022-09-05T08:16:24.158Z,101178.47
2022-09-05T08:18:53.138Z,101175.66
2022-09-05T08:21:39.775Z,101181.44
2022-09-05T08:24:13.780Z,101179.69
2022-09-05T08:26:52.622Z,101164.88
2022-09-05T08:29:39.701Z,101169.06
2022-09-05T08:32:10.651Z,101165.38
2022-09-05T08:34:56.658Z,101165.28
2022-09-05T08:37:26.109Z,101168.97
2022-09-05T08:40:10.859Z,101174.81
2022-09-05T08:44:24.437Z,101173.00
2022-09-05T08:46:40.700Z,101172.38
2022-09-05T08:49:11.321Z,101166.06
2022-09-05T08:51:55.401Z,101159.47
2022-09-05T08:54:32.068Z,101163.00
2022-09-05T08:57:07.262Z,101161.00
2022-09-05T08:59:36.655Z,101155.75
2022-09-05T09:02:52.028Z,101156.66
2022-09-05T09:06:12.253Z,101152.28
2022-09-05T09:09:16.586Z,101149.63
2022-09-05T09:12:03.330Z,101140.88
2022-09-05T09:15:03.347Z,101138.34
2022-09-05T09:17:44.550Z,101134.63
2022-09-05T09:20:19.852Z,101130.28
2022-09-05T09:22:58.694Z,101130.56
2022-09-05T09:25:49.267Z,101132.72
2022-09-05T09:28:47.986Z,101131.25
2022-09-05T09:31:31.371Z,101134.47
2022-09-05T09:34:06.977Z,101132.59
2022-09-05T09:36:55.369Z,101138.16
2022-09-05T09:39:39.301Z,101128.00
2022-09-05T09:42:33.191Z,101133.09
2022-09-05T09:45:27.874Z,101130.97
2022-09-05T09:48:32.198Z,101131.38
2022-09-05T09:51:05.124Z,101122.91
2022-09-05T09:53:50.280Z,101118.47
2022-09-05T09:56:48.002Z,101115.06
2022-09-05T09:59:33.233Z,101121.41
2022-09-05T10:04:31.282Z,101116.56
2022-09-05T10:10:45.620Z,101120.13
2022-09-05T10:10:46.170Z,101120.44
2022-09-05T10:12:23.162Z,101117.19
2022-09-05T10:15:30.516Z,101120.03
2022-09-05T10:18:21.885Z,101113.50
2022-09-05T10:21:15.659Z,101107.34
2022-09-05T10:24:04.656Z,101100.53
2022-09-05T10:26:37.086Z,101104.13
2022-09-05T10:29:35.000Z,101100.22
2022-09-05T10:35:07.966Z,101109.16
2022-09-05T10:35:22.284Z,101104.38
2022-09-05T10:38:10.743Z,101109.06
2022-09-05T10:40:51.428Z,101091.31
2022-09-05T10:43:30.116Z,101092.47
2022-09-05T10:45:56.745Z,101088.09
2022-09-05T10:48:52.915Z,101091.78
2022-09-05T10:51:27.919Z,101086.88
2022-09-05T10:53:58.699Z,101070.66
2022-09-05T10:56:32.031Z,101085.09
2022-09-05T10:59:38.737Z,101080.22
2022-09-05T11:02:29.728Z,101074.97
2022-09-05T11:04:50.579Z,101079.91
2022-09-05T11:07:35.592Z,101068.41
2022-09-05T11:10:10.176Z,101069.06
2022-09-05T11:13:03.582Z,101072.47
2022-09-05T11:15:33.969Z,101075.19
2022-09-05T11:18:09.819Z,101074.22
2022-09-05T11:20:54.647Z,101061.06
2022-09-05T11:23:46.213Z,101069.56
2022-09-05T11:26:54.526Z,101060.03
2022-09-05T11:29:41.392Z,101059.03
2022-09-05T11:35:46.709Z,101063.50
2022-09-05T11:39:53.714Z,101057.31
2022-09-05T11:39:59.041Z,101052.88
2022-09-05T11:41:31.234Z,101060.19
2022-09-05T11:44:26.131Z,101056.47
2022-09-05T11:47:29.807Z,101045.63
2022-09-05T11:50:27.448Z,101046.50
2022-09-05T11:53:05.248Z,101039.75
2022-09-05T11:55:58.633Z,101050.97
2022-09-05T11:58:45.033Z,101031.53
2022-09-05T12:01:41.544Z,101035.97
2022-09-05T12:04:20.450Z,101031.78
2022-09-05T12:07:27.065Z,101033.56
2022-09-05T12:09:56.759Z,101030.91
2022-09-05T12:12:43.447Z,101041.59
2022-09-05T12:16:07.324Z,101032.03
2022-09-05T12:19:18.763Z,101032.31
2022-09-05T12:22:09.023Z,101018.31
2022-09-05T12:26:14.118Z,101019.91
2022-09-05T12:29:26.671Z,101023.13
2022-09-05T12:32:50.618Z,101016.41
2022-09-05T12:36:04.141Z,101011.31
2022-09-05T12:40:43.240Z,101004.94
2022-09-05T12:41:37.998Z,101007.72
2022-09-05T12:44:06.050Z,101010.06
2022-09-05T12:46:02.282Z,101001.22
2022-09-05T12:48:39.253Z,101002.72
2022-09-05T12:51:45.457Z,101002.56
2022-09-05T12:54:24.556Z,101006.47
2022-09-05T13:00:54.122Z,100995.91
2022-09-05T13:03:01.183Z,100986.84
2022-09-05T13:03:05.725Z,100987.50
2022-09-05T13:05:46.491Z,100986.88
2022-09-05T13:08:21.223Z,100976.03
2022-09-05T13:14:47.446Z,100983.84
2022-09-05T13:14:55.454Z,100979.38
2022-09-05T13:16:43.913Z,100986.13
2022-09-05T13:19:43.462Z,100975.97
2022-09-05T13:22:14.706Z,100975.16
2022-09-05T13:24:45.647Z,100966.19
2022-09-05T13:27:16.114Z,100969.09
2022-09-05T13:31:59.644Z,100974.50
2022-09-05T13:37:59.938Z,100970.09
2022-09-05T13:38:09.896Z,100960.25
2022-09-05T13:39:02.078Z,100961.69
2022-09-05T13:41:41.991Z,100955.41
2022-09-05T13:44:27.488Z,100959.34
2022-09-05T13:47:02.019Z,100966.66
2022-09-05T13:49:44.801Z,100956.13
2022-09-05T13:52:34.506Z,100957.00
2022-09-05T13:55:25.163Z,100945.81
2022-09-05T13:58:05.120Z,100943.34
2022-09-05T14:00:40.499Z,100943.13
2022-09-05T14:05:56.484Z,100934.53
2022-09-05T14:11:55.835Z,100942.94
2022-09-05T14:20:28.248Z,100925.84
2022-09-05T14:23:24.293Z,100925.41
2022-09-05T14:26:00.136Z,100922.66
2022-09-05T14:28:46.622Z,100923.94
2022-09-05T14:37:37.007Z,100924.97
2022-09-05T14:37:42.860Z,100920.00
2022-09-05T14:37:49.008Z,100917.53
2022-09-05T14:40:35.302Z,100919.00
2022-09-05T14:43:26.884Z,100918.06
2022-09-05T14:46:07.318Z,100912.66
2022-09-05T14:49:05.552Z,100907.19
2022-09-05T14:51:46.518Z,100910.00
2022-09-05T15:02:38.613Z,100910.38
2022-09-05T15:02:49.129Z,100904.84
2022-09-05T15:03:04.571Z,100908.25
2022-09-05T15:05:32.014Z,100905.97
2022-09-05T15:08:26.932Z,100904.75
2022-09-05T15:12:15.727Z,100901.19
2022-09-05T15:14:11.160Z,100901.56
2022-09-05T15:16:43.589Z,100895.88
2022-09-05T15:19:11.119Z,100899.78
2022-09-05T15:21:41.334Z,100897.13
2022-09-05T15:24:15.758Z,100902.31
2022-09-05T15:26:53.544Z,100902.72
2022-09-05T15:29:26.726Z,100911.81
2022-09-05T15:32:11.886Z,100905.41
2022-09-05T15:34:39.080Z,100893.66
2022-09-05T15:37:40.392Z,100890.56
2022-09-05T15:40:22.590Z,100888.72
2022-09-05T15:42:53.435Z,100892.00
2022-09-05T15:45:46.931Z,100896.91
2022-09-05T15:48:26.278Z,100893.47
2022-09-05T15:51:07.351Z,100891.34
2022-09-05T15:53:37.648Z,100890.78
2022-09-05T15:56:10.099Z,100894.22
2022-09-05T15:58:53.490Z,100885.13
2022-09-05T16:01:59.854Z,100891.22
2022-09-05T16:10:31.286Z,100885.75
2022-09-05T16:10:42.877Z,100878.16
2022-09-05T16:10:45.440Z,100880.16
2022-09-05T16:13:12.939Z,100876.69
2022-09-05T16:20:27.806Z,100872.44
2022-09-05T16:23:25.131Z,100871.03
2022-09-05T16:23:29.518Z,100870.84
2022-09-05T16:24:45.121Z,100866.63
2022-09-05T16:27:17.989Z,100864.03
2022-09-05T16:29:50.556Z,100851.91
2022-09-05T16:32:28.624Z,100867.88
2022-09-05T16:35:00.364Z,100862.47
2022-09-05T16:37:35.771Z,100863.78
2022-09-05T16:40:18.529Z,100860.34
2022-09-05T16:42:49.441Z,100862.06
2022-09-05T16:45:29.588Z,100858.09
2022-09-05T16:48:34.370Z,100858.88
2022-09-05T16:51:16.871Z,100854.41
2022-09-05T16:54:10.380Z,100863.75
2022-09-05T16:57:24.245Z,100864.16
2022-09-05T16:59:51.301Z,100868.03
2022-09-05T17:02:38.721Z,100870.22
2022-09-05T17:05:39.279Z,100865.75
2022-09-05T17:08:35.584Z,100859.69
2022-09-05T17:11:12.273Z,100865.59
2022-09-05T17:13:54.444Z,100864.22
2022-09-05T17:16:56.424Z,100864.69
2022-09-05T17:19:33.749Z,100869.50
2022-09-05T17:23:39.148Z,100860.72
2022-09-05T17:29:30.887Z,100867.28
2022-09-05T17:29:31.063Z,100868.63
2022-09-05T17:31:55.903Z,100875.75
2022-09-05T17:34:30.025Z,100872.63
2022-09-05T17:37:22.543Z,100878.28
2022-09-05T17:40:10.126Z,100879.56
2022-09-05T17:42:36.858Z,100882.53
2022-09-05T17:45:26.454Z,100878.84
2022-09-05T17:47:57.609Z,100886.44
2022-09-05T17:50:28.205Z,100880.34
2022-09-05T17:53:26.062Z,100890.22
2022-09-05T17:56:09.399Z,100896.03
2022-09-05T17:58:48.991Z,100902.13
2022-09-05T18:01:26.890Z,100906.25
2022-09-05T18:04:18.011Z,100906.69
2022-09-05T18:06:49.015Z,100913.44
2022-09-05T18:09:42.870Z,100913.06
2022-09-05T18:13:31.596Z,100917.28
2022-09-05T18:15:35.631Z,100912.84
2022-09-05T18:18:43.658Z,100910.72
2022-09-05T18:24:12.822Z,100907.84
2022-09-05T18:26:48.847Z,100919.00
2022-09-05T18:29:58.850Z,100926.94
2022-09-05T18:33:55.297Z,100930.22
2022-09-05T18:36:02.255Z,100923.50
2022-09-05T18:38:50.244Z,100926.00
2022-09-05T18:41:24.749Z,100930.00
2022-09-05T18:43:54.679Z,100932.72
2022-09-05T18:46:49.800Z,100932.41
2022-09-05T18:50:23.817Z,100945.22
2022-09-05T18:52:24.236Z,100936.91
2022-09-05T18:56:11.664Z,100938.56
2022-09-05T18:57:48.651Z,100932.63
2022-09-05T19:00:24.783Z,100939.72
2022-09-05T19:03:07.709Z,100943.41
2022-09-05T19:06:35.589Z,100935.69
2022-09-05T19:08:56.765Z,100942.19
2022-09-05T19:11:53.347Z,100938.22
2022-09-05T19:14:36.395Z,100929.94
2022-09-05T19:17:30.137Z,100929.66
2022-09-05T19:20:32.486Z,100931.44
2022-09-05T19:23:10.969Z,100931.94
2022-09-05T19:25:41.331Z,100927.59
2022-09-05T19:35:14.092Z,100921.84
2022-09-05T19:36:53.410Z,100911.38
2022-09-05T19:37:09.791Z,100919.75
2022-09-05T19:37:42.878Z,100915.81
2022-09-05T19:47:25.412Z,100912.19
2022-09-05T19:47:43.623Z,100917.56
2022-09-05T19:47:43.634Z,100922.66
2022-09-05T19:49:07.463Z,100920.63
2022-09-05T19:51:34.503Z,100918.66
2022-09-05T19:54:04.610Z,100919.22
2022-09-05T19:56:44.370Z,100911.03
2022-09-05T19:59:25.207Z,100917.06
2022-09-05T20:01:53.106Z,100914.56
2022-09-05T20:04:21.077Z,100914.94
2022-09-05T20:06:49.654Z,100915.06
2022-09-05T20:09:19.018Z,100908.84
2022-09-05T20:11:50.791Z,100916.44
2022-09-05T20:14:18.673Z,100914.38
2022-09-05T20:16:48.135Z,100917.97
2022-09-05T20:19:34.404Z,100918.81
2022-09-05T20:22:17.409Z,100924.47
2022-09-05T20:24:52.536Z,100923.25
2022-09-05T20:27:19.432Z,100927.53
2022-09-05T20:29:58.050Z,100922.78
2022-09-05T20:32:39.441Z,100925.94
2022-09-05T20:37:24.065Z,100931.75
2022-09-05T20:43:20.297Z,100929.91
2022-09-05T20:43:31.288Z,100919.25
2022-09-05T20:43:53.116Z,100920.28
2022-09-05T20:50:26.083Z,100919.97
2022-09-05T20:54:08.675Z,100923.75
2022-09-05T20:54:27.128Z,100920.72
2022-09-05T20:55:40.196Z,100922.09
2022-09-05T20:58:11.490Z,100921.94
2022-09-05T21:01:15.708Z,100926.94
2022-09-05T21:03:36.604Z,100924.91
2022-09-05T21:06:23.030Z,100920.91
2022-09-05T21:08:55.823Z,100917.59
2022-09-05T21:11:32.597Z,100916.72
2022-09-05T21:14:03.419Z,100916.38
2022-09-05T21:16:44.884Z,100921.03
2022-09-05T21:19:29.447Z,100931.50
2022-09-05T21:22:06.384Z,100929.63
2022-09-05T21:24:33.441Z,100935.25
2022-09-05T21:27:21.827Z,100933.72
2022-09-05T21:29:53.025Z,100936.97
2022-09-05T21:32:27.975Z,100935.06
2022-09-05T21:35:09.250Z,100931.72
2022-09-05T21:37:53.587Z,100931.38
2022-09-05T21:40:21.301Z,100934.09
2022-09-05T21:46:31.672Z,100934.25
2022-09-05T21:47:44.916Z,100934.44
2022-09-05T21:48:24.133Z,100940.91
2022-09-05T21:50:57.262Z,100940.91
2022-09-05T21:57:16.884Z,100936.47
2022-09-05T21:59:21.755Z,100936.66
2022-09-05T22:02:08.387Z,100939.19
2022-09-05T22:04:35.622Z,100938.19
2022-09-05T22:07:08.090Z,100940.38
2022-09-05T22:09:34.611Z,100933.25
2022-09-05T22:12:09.692Z,100933.09
2022-09-05T22:14:47.784Z,100935.31
2022-09-05T22:17:14.443Z,100935.78
2022-09-05T22:19:41.254Z,100928.00
2022-09-05T22:22:16.941Z,100931.19
2022-09-05T22:24:55.383Z,100927.47
2022-09-05T22:27:25.936Z,100925.06
2022-09-05T22:29:52.905Z,100926.78
2022-09-05T22:32:34.769Z,100928.50
2022-09-05T22:35:27.283Z,100928.66
2022-09-05T22:38:00.257Z,100927.47
2022-09-05T22:40:29.045Z,100920.84
2022-09-05T22:43:00.845Z,100920.50
2022-09-05T22:45:28.798Z,100918.28
2022-09-05T22:47:55.506Z,100903.13
2022-09-05T22:50:23.015Z,100916.91
2022-09-05T22:52:50.119Z,100904.34
2022-09-05T22:55:17.438Z,100907.75
2022-09-05T22:57:44.015Z,100910.28
2022-09-05T23:00:11.207Z,100909.59
2022-09-05T23:02:37.763Z,100906.22
2022-09-05T23:05:05.618Z,100914.03
2022-09-05T23:07:32.503Z,100906.19
2022-09-05T23:09:59.476Z,100907.06
2022-09-05T23:12:26.153Z,100907.88
2022-09-05T23:14:52.811Z,100909.09
2022-09-05T23:17:19.320Z,100902.63
2022-09-05T23:19:45.850Z,100903.81
2022-09-05T23:22:12.392Z,100910.78
2022-09-05T23:24:38.911Z,100900.25
2022-09-05T23:27:05.475Z,100904.81
2022-09-05T23:29:32.005Z,100901.06
2022-09-05T23:31:58.528Z,100901.06
2022-09-05T23:34:25.632Z,100898.34
2022-09-05T23:36:52.182Z,100896.81
2022-09-05T23:39:18.734Z,100896.81
2022-09-05T23:41:45.271Z,100893.44
2022-09-05T23:44:12.031Z,100897.19
2022-09-05T23:46:40.421Z,100891.06
2022-09-05T23:49:07.166Z,100884.78
2022-09-05T23:51:33.784Z,100886.47
2022-09-05T23:54:00.338Z,100894.13
2022-09-05T23:56:26.882Z,100887.47
2022-09-05T23:58:53.431Z,100880.66
